Flight Track Log - Related Links

Times and Time Zones

All times are in EDT time to prevent confusion due to time zone crossing. See the N712WB flight status page for this flight to view local times or setup timezone preferences in your user account.

Time Position Orientation Groundspeed Altitude Reporting Facility
EDT Latitude Longitude Course Direction KTS MPH feet Rate Location/Type
Mon 05:05:37 PM 32.6928 -80.1772 273° West 247 284 6,600  Level Jacksonville Center
Mon 05:06:37 PM 32.6967 -80.2711 273° West 267 307 9,700 2,250 Climbing Jacksonville Center
Mon 05:07:37 PM 32.7342 -80.3636 296° West 290 334 11,100 1,100 Climbing Jacksonville Center
Mon 05:08:37 PM 32.7656 -80.4764 288° West 310 357 11,900 950 Climbing Jacksonville Center
Mon 05:09:37 PM 32.7633 -80.5853 269° West 323 372 13,000 950 Climbing Jacksonville Center
Mon 05:10:37 PM 32.7444 -80.6919 258° West 335 386 13,800 800 Climbing Jacksonville Center
Mon 05:11:37 PM 32.7108 -80.7989 250° West 335 386 14,600 1,150 Climbing Jacksonville Center
Mon 05:12:37 PM 32.6750 -80.9108 249° West 347 399 16,100 1,750 Climbing Jacksonville Center
Mon 05:13:37 PM 32.6392 -81.0225 249° West 376 433 18,100 1,850 Climbing Jacksonville Center
Mon 05:14:37 PM 32.6033 -81.1367 250° West 368 423 19,800 1,650 Climbing Jacksonville Center
Mon 05:15:37 PM 32.5881 -81.2578 262° West 373 429 21,400 1,650 Climbing Jacksonville Center
Mon 05:16:37 PM 32.5853 -81.3714 268° West 382 440 23,100 1,450 Climbing Jacksonville Center
Mon 05:17:37 PM 32.5828 -81.5144 269° West 392 451 24,300 1,250 Climbing Jacksonville Center
Mon 05:18:37 PM 32.5822 -81.6450 270° West 402 463 25,600 1,188 Climbing Jacksonville Center
Mon 05:20:54 PM 32.5783 -81.9461 269° West 414 476 28,200 1,218 Climbing Atlanta Center
Mon 05:21:54 PM 32.5744 -82.0867 268° West 429 494 29,600 1,350 Climbing Atlanta Center
Mon 05:22:54 PM 32.5725 -82.2297 269° West 434 499 30,900 1,400 Climbing Atlanta Center
Mon 05:23:54 PM 32.5681 -82.3753 268° West 439 505 32,400 1,800 Climbing Atlanta Center
Mon 05:24:54 PM 32.5658 -82.5181 269° West 439 505 34,500 2,400 Climbing Atlanta Center
Mon 05:25:54 PM 32.5653 -82.6536 270° West 433 498 37,200 2,500 Climbing Atlanta Center
Mon 05:26:54 PM 32.5625 -82.7869 269° West 424 488 39,500 1,400 Climbing Atlanta Center
Mon 05:27:54 PM 32.5389 -82.9300 259° West 424 488 40,000 1,150 Climbing Atlanta Center
Mon 05:28:54 PM 32.5089 -83.0658 255° West 430 495 41,800 1,500 Climbing Atlanta Center
Mon 05:29:54 PM 32.4764 -83.2042 254° West 430 495 43,000 600 Climbing Atlanta Center
Mon 05:30:54 PM 32.4417 -83.3422 253° West 435 501 43,000  Level Atlanta Center
Mon 05:31:54 PM 32.4092 -83.4903 255° West 447 514 43,000  Level Atlanta Center
Mon 05:32:54 PM 32.3722 -83.6428 254° West 467 537 43,000  Level Atlanta Center
Mon 05:33:54 PM 32.3350 -83.7956 254° West 477 549 43,000  Level Atlanta Center
Mon 05:34:54 PM 32.2997 -83.9481 255° West 477 549 43,000  Level Atlanta Center
Mon 05:35:54 PM 32.2600 -84.1028 253° West 482 555 43,000  Level Atlanta Center
Mon 05:36:54 PM 32.2203 -84.2719 255° West 488 562 43,000  Level Atlanta Center
Mon 05:37:54 PM 32.1822 -84.4242 254° West 493 567 43,000  Level Atlanta Center
Mon 05:38:54 PM 32.1442 -84.5761 254° West 493 567 43,000  Level Atlanta Center
Mon 05:39:54 PM 32.1058 -84.7303 254° West 493 567 43,000  Level Atlanta Center
Mon 05:40:54 PM 32.0653 -84.8844 253° West 493 567 43,000  Level Atlanta Center
Mon 05:41:54 PM 32.0264 -85.0383 253° West 493 567 43,000  Level Atlanta Center
Mon 05:42:54 PM 31.9875 -85.1897 253° West 493 567 43,000  Level Atlanta Center
Mon 05:43:54 PM 31.9464 -85.3433 253° West 493 567 43,000  Level Atlanta Center
Mon 05:44:54 PM 31.9092 -85.4944 254° West 493 567 43,000  Level Atlanta Center
Mon 05:45:54 PM 31.8675 -85.6503 253° West 493 567 43,000  Level Atlanta Center
Mon 05:46:54 PM 31.8300 -85.8086 254° West 498 573 43,000  Level Atlanta Center
Mon 05:47:54 PM 31.7861 -85.9592 251° West 498 573 43,000  Level Atlanta Center
Mon 05:48:54 PM 31.7458 -86.1122 253° West 498 573 43,000  Level Atlanta Center
Mon 05:49:54 PM 31.7036 -86.2700 253° West 498 573 43,000  Level Atlanta Center
Mon 05:50:54 PM 31.6653 -86.4250 254° West 498 573 43,000  Level Atlanta Center
Mon 05:51:54 PM 31.6225 -86.5800 252° West 498 573 43,000  Level Atlanta Center
Mon 05:52:54 PM 31.5817 -86.7325 253° West 498 573 43,000  Level Atlanta Center
Mon 05:53:54 PM 31.5425 -86.8897 254° West 498 573 43,000  Level Atlanta Center
Mon 05:55:26 PM 31.4781 -87.1236 252° West 503 579 43,000  Level Houston Center
Mon 05:56:28 PM 31.4350 -87.2808 252° West 506 582 43,000  Level Houston Center
Mon 05:57:30 PM 31.3917 -87.4375 252° West 508 585 43,000  Level Houston Center
Mon 05:58:32 PM 31.3492 -87.5936 252° West 509 586 43,000  Level Houston Center
Mon 05:59:34 PM 31.3061 -87.7500 252° West 508 585 43,000  Level Houston Center
Mon 06:00:35 PM 31.2628 -87.9081 252° West 513 590 43,000 -1,220 Level Houston Center
Mon 06:01:37 PM 31.2111 -88.0897 252° West 502 578 40,500 -2,468 Descending Houston Center
Mon 06:02:39 PM 31.1656 -88.2389 250° West 491 565 37,900 -2,516 Descending Houston Center
Mon 06:03:41 PM 31.1244 -88.3958 253° West 520 598 35,300 -2,565 Descending Houston Center
Mon 06:04:43 PM 31.0789 -88.5511 251° West 511 588 32,600 -2,829 Descending Houston Center
Mon 06:05:44 PM 31.0261 -88.7333 251° West 518 596 29,500 -2,829 Descending Houston Center
Mon 06:06:46 PM 30.9814 -88.8853 251° West 502 578 26,800 -2,613 Descending Houston Center
Mon 06:07:48 PM 30.9389 -89.0397 252° West 482 555 24,100 -2,419 Descending Houston Center
Mon 06:08:50 PM 30.8986 -89.1764 251° West 453 521 21,800 -2,226 Descending Houston Center
Mon 06:09:52 PM 30.8603 -89.3064 251° West 429 494 19,500 -2,244 Descending Houston Center
Mon 06:10:53 PM 30.8219 -89.4364 251° West 429 494 17,200 -2,195 Descending Houston Center
Mon 06:11:55 PM 30.7853 -89.5636 251° West 419 482 15,000 -2,167 Descending Houston Center
Mon 06:12:41 PM 30.7553 -89.6658 251° West 376 433 13,300 -2,122 Descending Houston Center
Mon 06:13:17 PM 30.7344 -89.7297 249° West 349 402 12,100 -1,846 Descending Houston Center
Mon 06:13:59 PM 30.7133 -89.8036 252° West 352 405 10,900 -865 Descending Houston Center
Mon 06:15:01 PM 30.6828 -89.9092 251° West 349 402 10,600 -927 Descending Houston Center
Mon 06:16:02 PM 30.6567 -89.9978 251° West 300 345 9,000 -1,659 Descending Houston Center
Mon 06:17:04 PM 30.6311 -90.0842 251° West 291 335 7,200 -1,742 Descending Houston Center
Mon 06:18:06 PM 30.6058 -90.1675 251° West 284 327 5,400 -1,839 Descending Houston Center
Mon 06:19:08 PM 30.5769 -90.2625 251° West 272 313 3,400 -1,694 Descending Houston Center
Mon 06:20:10 PM 30.5531 -90.3392 250° West 263 303 1,900 -919 Descending Houston Center
Mon 06:21:12 PM 30.5794 -90.4022 296° West 237 273 1,500 -484 Descending Houston Center
Mon 06:22:14 PM 30.5808 -90.4483 272° West 193 222 900 -435 Descending Houston Center
Mon 06:23:16 PM 30.5419 -90.4439 174° South 165 190 600 -290 Descending Houston Center
Mon 06:25:00 PM 30.5167 -90.4167 164° South  Level FlightAware Approximate
Mon 06:32:00 PM 30.5217 -90.4184 164° South  Level Estimated
Mon 06:33:00 PM 30.5167 -90.4167 164° South  Level FlightAware Approximate
Mon 06:34:00 PM 30.5217 -90.4184 164° South  Level Estimated
Mon 06:35:00 PM 30.5167 -90.4167 164° South  Level FlightAware Approximate
Mon 06:36:00 PM 30.5217 -90.4184 164° South  Level Estimated

Login

Don't have an account? Register now (free) for customized features, flight alerts, and more!